createdAt,value
2017-01-02T00:00:06.525Z,1012.08
2017-01-02T00:00:47.177Z,1012.1
2017-01-02T00:01:27.830Z,1012.11
2017-01-02T00:02:08.482Z,1012.14
2017-01-02T00:02:49.144Z,1012.13
2017-01-02T00:03:29.733Z,1012.14
2017-01-02T00:04:10.348Z,1012.12
2017-01-02T00:04:50.995Z,1012.11
2017-01-02T00:05:31.554Z,1012.12
2017-01-02T00:06:12.207Z,1012.09
2017-01-02T00:06:52.855Z,1012.1
2017-01-02T00:07:33.426Z,1012.06
2017-01-02T00:08:14.052Z,1012.04
2017-01-02T00:08:54.716Z,1012.06
2017-01-02T00:09:35.363Z,1012.01
2017-01-02T00:10:16.037Z,1012.01
2017-01-02T00:10:56.671Z,1012.05
2017-01-02T00:11:37.324Z,1012.01
2017-01-02T00:12:17.974Z,1012
2017-01-02T00:12:58.624Z,1012
2017-01-02T00:13:39.183Z,1011.99
2017-01-02T00:14:19.884Z,1012.01
2017-01-02T00:15:00.494Z,1012
2017-01-02T00:15:41.139Z,1012.02
2017-01-02T00:16:21.696Z,1012.09
2017-01-02T00:17:02.302Z,1012.1
2017-01-02T00:17:43.000Z,1012.13
2017-01-02T00:18:23.651Z,1012.13
2017-01-02T00:19:04.227Z,1012.16
2017-01-02T00:19:44.847Z,1012.17
2017-01-02T00:20:25.504Z,1012.14
2017-01-02T00:21:06.074Z,1012.17
2017-01-02T00:21:46.709Z,1012.13
2017-01-02T00:22:27.362Z,1012.11
2017-01-02T00:23:07.933Z,1012.13
2017-01-02T00:23:48.567Z,1012.13
2017-01-02T00:24:29.217Z,1012.14
2017-01-02T00:25:09.793Z,1012.19
2017-01-02T00:25:50.370Z,1012.17
2017-01-02T00:26:30.973Z,1012.11
2017-01-02T00:27:11.627Z,1012.14
2017-01-02T00:27:52.207Z,1012.15
2017-01-02T00:28:32.763Z,1012.13
2017-01-02T00:29:13.377Z,1012.14
2017-01-02T00:29:54.030Z,1012.14
2017-01-02T00:30:34.684Z,1012.16
2017-01-02T00:31:15.329Z,1012.13
2017-01-02T00:31:55.992Z,1012.16
2017-01-02T00:32:36.646Z,1012.14
2017-01-02T00:33:17.285Z,1012.18
2017-01-02T00:33:57.950Z,1012.22
2017-01-02T00:34:38.600Z,1012.19
2017-01-02T00:35:19.256Z,1012.14
2017-01-02T00:35:59.908Z,1012.19
2017-01-02T00:36:40.560Z,1012.17
2017-01-02T00:37:21.209Z,1012.16
2017-01-02T00:38:01.856Z,1012.14
2017-01-02T00:38:42.424Z,1012.18
2017-01-02T00:39:23.073Z,1012.14
2017-01-02T00:40:03.760Z,1012.14
2017-01-02T00:40:44.333Z,1012.12
2017-01-02T00:41:24.927Z,1012.13
2017-01-02T00:42:05.578Z,1012.12
2017-01-02T00:42:46.165Z,1012.12
2017-01-02T00:43:26.782Z,1012.13
2017-01-02T00:44:07.435Z,1012.12
2017-01-02T00:44:47.996Z,1012.11
2017-01-02T00:45:28.639Z,1012.13
2017-01-02T00:46:09.287Z,1012.16
2017-01-02T00:46:49.855Z,1012.17
2017-01-02T00:47:30.503Z,1012.15
2017-01-02T00:48:11.149Z,1012.14
2017-01-02T00:48:51.711Z,1012.15
2017-01-02T00:49:32.295Z,1012.14
2017-01-02T00:50:12.908Z,1012.11
2017-01-02T00:50:53.555Z,1012.14
2017-01-02T00:51:34.141Z,1012.06
2017-01-02T00:52:14.810Z,1012.11
2017-01-02T00:52:55.419Z,1012.08
2017-01-02T00:53:36.065Z,1012.09
2017-01-02T00:54:16.627Z,1012.15
2017-01-02T00:54:58.246Z,1012.16
2017-01-02T00:55:38.849Z,1012.14
2017-01-02T00:56:19.598Z,1012.15
2017-01-02T00:57:00.158Z,1012.15
2017-01-02T00:57:40.752Z,1012.12
2017-01-02T00:58:21.341Z,1012.15
2017-01-02T00:59:02.928Z,1012.14
2017-01-02T00:59:43.580Z,1012.16
2017-01-02T01:00:24.231Z,1012.14
2017-01-02T01:01:04.883Z,1012.17
2017-01-02T01:01:45.531Z,1012.16
2017-01-02T01:02:26.186Z,1012.16
2017-01-02T01:03:06.841Z,1012.2
2017-01-02T01:03:47.406Z,1012.2
2017-01-02T01:04:29.016Z,1012.2
2017-01-02T01:05:09.630Z,1012.21
2017-01-02T01:05:50.274Z,1012.21
2017-01-02T01:06:30.827Z,1012.24
2017-01-02T01:07:11.420Z,1012.28
2017-01-02T01:07:52.032Z,1012.23
2017-01-02T01:08:32.679Z,1012.26
2017-01-02T01:09:13.237Z,1012.25
2017-01-02T01:09:53.830Z,1012.26
2017-01-02T01:10:34.434Z,1012.25
2017-01-02T01:11:15.087Z,1012.21
2017-01-02T01:11:55.653Z,1012.22
2017-01-02T01:12:36.346Z,1012.19
2017-01-02T01:13:16.950Z,1012.19
2017-01-02T01:13:57.597Z,1012.2
2017-01-02T01:14:38.170Z,1012.19
2017-01-02T01:15:18.752Z,1012.23
2017-01-02T01:15:59.351Z,1012.24
2017-01-02T01:16:39.915Z,1012.22
2017-01-02T01:17:20.509Z,1012.22
2017-01-02T01:18:01.104Z,1012.21
2017-01-02T01:18:41.754Z,1012.25
2017-01-02T01:19:22.320Z,1012.24
2017-01-02T01:20:02.918Z,1012.25
2017-01-02T01:20:43.513Z,1012.25
2017-01-02T01:21:24.163Z,1012.28
2017-01-02T01:22:04.719Z,1012.25
2017-01-02T01:22:45.310Z,1012.3
2017-01-02T01:23:25.904Z,1012.32
2017-01-02T01:24:06.917Z,1012.36
2017-01-02T01:24:47.135Z,1012.32
2017-01-02T01:25:27.734Z,1012.33
2017-01-02T01:26:08.424Z,1012.31
2017-01-02T01:26:49.074Z,1012.34
2017-01-02T01:27:29.642Z,1012.33
2017-01-02T01:28:10.227Z,1012.36
2017-01-02T01:28:50.831Z,1012.35
2017-01-02T01:29:31.489Z,1012.31
2017-01-02T01:30:12.048Z,1012.32
2017-01-02T01:30:52.644Z,1012.34
2017-01-02T01:31:33.228Z,1012.36
2017-01-02T01:32:13.893Z,1012.4
2017-01-02T01:32:54.488Z,1012.42
2017-01-02T01:33:35.144Z,1012.42
2017-01-02T01:34:15.750Z,1012.41
2017-01-02T01:34:56.360Z,1012.46
2017-01-02T01:35:37.059Z,1012.4
2017-01-02T01:36:17.704Z,1012.44
2017-01-02T01:36:58.261Z,1012.39
2017-01-02T01:37:38.900Z,1012.37
2017-01-02T01:38:19.562Z,1012.36
2017-01-02T01:39:00.137Z,1012.34
2017-01-02T01:39:40.758Z,1012.3
2017-01-02T01:40:21.421Z,1012.29
2017-01-02T01:41:01.998Z,1012.34
2017-01-02T01:41:42.627Z,1012.35
2017-01-02T01:42:23.277Z,1012.35
2017-01-02T01:43:03.846Z,1012.35
2017-01-02T01:43:44.600Z,1012.38
2017-01-02T01:44:25.233Z,1012.39
2017-01-02T01:45:05.791Z,1012.43
2017-01-02T01:45:46.391Z,1012.39
2017-01-02T01:46:26.985Z,1012.43
2017-01-02T01:47:07.642Z,1012.42
2017-01-02T01:47:48.201Z,1012.39
2017-01-02T01:48:28.798Z,1012.45
2017-01-02T01:49:09.399Z,1012.44
2017-01-02T01:49:50.053Z,1012.43
2017-01-02T01:50:30.705Z,1012.47
2017-01-02T01:51:11.352Z,1012.5
2017-01-02T01:51:52.004Z,1012.49
2017-01-02T01:52:32.656Z,1012.51
2017-01-02T01:53:13.316Z,1012.49
2017-01-02T01:53:53.968Z,1012.49
2017-01-02T01:54:34.523Z,1012.51
2017-01-02T01:55:15.122Z,1012.48
2017-01-02T01:55:55.718Z,1012.51
2017-01-02T01:56:36.411Z,1012.52
2017-01-02T01:57:16.965Z,1012.6
2017-01-02T01:57:57.628Z,1012.58
2017-01-02T01:58:38.231Z,1012.61
2017-01-02T01:59:18.888Z,1012.66
2017-01-02T01:59:59.455Z,1012.61
2017-01-02T02:00:40.040Z,1012.65
2017-01-02T02:01:20.737Z,1012.62
2017-01-02T02:02:01.390Z,1012.61
2017-01-02T02:02:41.958Z,1012.64
2017-01-02T02:03:22.545Z,1012.69
2017-01-02T02:04:03.150Z,1012.7
2017-01-02T02:04:43.791Z,1012.7
2017-01-02T02:05:24.439Z,1012.65
2017-01-02T02:06:05.103Z,1012.66
2017-01-02T02:06:45.751Z,1012.7
2017-01-02T02:07:26.406Z,1012.67
2017-01-02T02:08:07.066Z,1012.66
2017-01-02T02:08:47.715Z,1012.67
2017-01-02T02:09:28.368Z,1012.66
2017-01-02T02:10:08.928Z,1012.67
2017-01-02T02:10:49.575Z,1012.66
2017-01-02T02:11:30.229Z,1012.67
2017-01-02T02:12:10.796Z,1012.64
2017-01-02T02:12:51.431Z,1012.61
2017-01-02T02:13:32.085Z,1012.67
2017-01-02T02:14:12.655Z,1012.68
2017-01-02T02:14:53.290Z,1012.71
2017-01-02T02:15:33.937Z,1012.68
2017-01-02T02:16:14.499Z,1012.67
2017-01-02T02:16:55.144Z,1012.72
2017-01-02T02:17:35.793Z,1012.74
2017-01-02T02:18:16.362Z,1012.73
2017-01-02T02:18:57.000Z,1012.71
2017-01-02T02:19:37.650Z,1012.72
2017-01-02T02:20:18.218Z,1012.65
2017-01-02T02:20:58.808Z,1012.72
2017-01-02T02:21:39.406Z,1012.65
2017-01-02T02:22:20.060Z,1012.6
2017-01-02T02:23:00.612Z,1012.61
2017-01-02T02:23:41.226Z,1012.69
2017-01-02T02:24:21.812Z,1012.7
2017-01-02T02:25:02.462Z,1012.72
2017-01-02T02:25:43.174Z,1012.72
2017-01-02T02:26:23.898Z,1012.73
2017-01-02T02:27:04.533Z,1012.69
2017-01-02T02:27:45.182Z,1012.66
2017-01-02T02:28:25.824Z,1012.64
2017-01-02T02:29:06.492Z,1012.64
2017-01-02T02:29:47.141Z,1012.64
2017-01-02T02:30:27.788Z,1012.57
2017-01-02T02:31:08.446Z,1012.6
2017-01-02T02:31:49.100Z,1012.61
2017-01-02T02:32:29.755Z,1012.61
2017-01-02T02:33:10.426Z,1012.58
2017-01-02T02:33:51.047Z,1012.55
2017-01-02T02:34:31.705Z,1012.56
2017-01-02T02:35:12.275Z,1012.54
2017-01-02T02:35:53.893Z,1012.49
2017-01-02T02:36:34.488Z,1012.47
2017-01-02T02:37:15.139Z,1012.46
2017-01-02T02:37:55.797Z,1012.46
2017-01-02T02:38:36.391Z,1012.49
2017-01-02T02:39:16.993Z,1012.47
2017-01-02T02:39:57.660Z,1012.45
2017-01-02T02:40:38.291Z,1012.49
2017-01-02T02:41:18.953Z,1012.48
2017-01-02T02:41:59.601Z,1012.49
2017-01-02T02:42:40.253Z,1012.5
2017-01-02T02:43:20.917Z,1012.48
2017-01-02T02:44:01.593Z,1012.51
2017-01-02T02:44:42.155Z,1012.53
2017-01-02T02:45:22.761Z,1012.5
2017-01-02T02:46:03.424Z,1012.48
2017-01-02T02:46:43.999Z,1012.48
2017-01-02T02:47:24.620Z,1012.51
2017-01-02T02:48:05.282Z,1012.49
2017-01-02T02:48:45.843Z,1012.51
2017-01-02T02:49:26.478Z,1012.47
2017-01-02T02:50:07.133Z,1012.5
2017-01-02T02:50:47.703Z,1012.49
2017-01-02T02:51:28.291Z,1012.49
2017-01-02T02:52:08.893Z,1012.51
2017-01-02T02:52:49.545Z,1012.49
2017-01-02T02:53:30.120Z,1012.52
2017-01-02T02:54:10.706Z,1012.54
2017-01-02T02:54:51.337Z,1012.53
2017-01-02T02:55:32.011Z,1012.52
2017-01-02T02:56:12.658Z,1012.58
2017-01-02T02:56:53.306Z,1012.54
2017-01-02T02:57:33.957Z,1012.51
2017-01-02T02:58:14.630Z,1012.48
2017-01-02T02:58:55.262Z,1012.55
2017-01-02T02:59:35.854Z,1012.53
2017-01-02T03:00:16.524Z,1012.5
2017-01-02T03:00:57.093Z,1012.52
2017-01-02T03:01:37.689Z,1012.51
2017-01-02T03:02:18.278Z,1012.53
2017-01-02T03:02:58.934Z,1012.52
2017-01-02T03:03:39.496Z,1012.55
2017-01-02T03:04:20.078Z,1012.5
2017-01-02T03:05:00.730Z,1012.55
2017-01-02T03:05:41.385Z,1012.58
2017-01-02T03:06:22.035Z,1012.6
2017-01-02T03:07:02.698Z,1012.62
2017-01-02T03:07:43.340Z,1012.62
2017-01-02T03:08:23.989Z,1012.65
2017-01-02T03:09:04.654Z,1012.61
2017-01-02T03:09:45.257Z,1012.59
2017-01-02T03:10:25.836Z,1012.58
2017-01-02T03:11:06.457Z,1012.6
2017-01-02T03:11:47.107Z,1012.66
2017-01-02T03:12:27.664Z,1012.66
2017-01-02T03:13:08.305Z,1012.61
2017-01-02T03:13:48.959Z,1012.66
2017-01-02T03:14:29.547Z,1012.63
2017-01-02T03:15:10.164Z,1012.6
2017-01-02T03:15:50.819Z,1012.65
2017-01-02T03:16:31.394Z,1012.64
2017-01-02T03:17:12.028Z,1012.66
2017-01-02T03:17:52.582Z,1012.68
2017-01-02T03:18:33.232Z,1012.66
2017-01-02T03:19:13.881Z,1012.7
2017-01-02T03:19:54.448Z,1012.69
2017-01-02T03:20:35.130Z,1012.66
2017-01-02T03:21:15.739Z,1012.66
2017-01-02T03:21:56.294Z,1012.66
2017-01-02T03:22:36.935Z,1012.66
2017-01-02T03:23:17.586Z,1012.65
2017-01-02T03:23:58.160Z,1012.7
2017-01-02T03:24:38.788Z,1012.7
2017-01-02T03:25:19.451Z,1012.7
2017-01-02T03:26:00.022Z,1012.73
2017-01-02T03:26:40.627Z,1012.74
2017-01-02T03:27:21.307Z,1012.75
2017-01-02T03:28:01.960Z,1012.76
2017-01-02T03:28:42.516Z,1012.74
2017-01-02T03:29:23.166Z,1012.78
2017-01-02T03:30:03.817Z,1012.74
2017-01-02T03:30:44.470Z,1012.78
2017-01-02T03:31:25.125Z,1012.73
2017-01-02T03:32:05.778Z,1012.73
2017-01-02T03:32:46.430Z,1012.68
2017-01-02T03:33:27.080Z,1012.68
2017-01-02T03:34:07.637Z,1012.64
2017-01-02T03:34:48.295Z,1012.68
2017-01-02T03:35:28.942Z,1012.65
2017-01-02T03:36:09.523Z,1012.64
2017-01-02T03:36:50.142Z,1012.67
2017-01-02T03:37:30.800Z,1012.69
2017-01-02T03:38:11.365Z,1012.68
2017-01-02T03:38:51.989Z,1012.69
2017-01-02T03:39:32.651Z,1012.67
2017-01-02T03:40:13.303Z,1012.74
2017-01-02T03:40:53.955Z,1012.71
2017-01-02T03:41:34.610Z,1012.72
2017-01-02T03:42:15.263Z,1012.71
2017-01-02T03:42:55.914Z,1012.7
2017-01-02T03:43:36.569Z,1012.7
2017-01-02T03:44:17.217Z,1012.67
2017-01-02T03:44:57.875Z,1012.64
2017-01-02T03:45:38.521Z,1012.65
2017-01-02T03:46:19.181Z,1012.63
2017-01-02T03:46:59.835Z,1012.61
2017-01-02T03:47:40.483Z,1012.62
2017-01-02T03:48:21.140Z,1012.61
2017-01-02T03:49:01.693Z,1012.62
2017-01-02T03:49:42.291Z,1012.61
2017-01-02T03:50:22.997Z,1012.6
2017-01-02T03:51:04.668Z,1012.61
2017-01-02T03:51:45.227Z,1012.6
2017-01-02T03:52:25.837Z,1012.58
2017-01-02T03:53:06.446Z,1012.57
2017-01-02T03:53:47.080Z,1012.58
2017-01-02T03:54:27.733Z,1012.57
2017-01-02T03:55:08.380Z,1012.58
2017-01-02T03:55:49.037Z,1012.59
2017-01-02T03:56:29.692Z,1012.59
2017-01-02T03:57:10.343Z,1012.59
2017-01-02T03:57:50.999Z,1012.58
2017-01-02T03:58:31.649Z,1012.57
2017-01-02T03:59:12.296Z,1012.6
2017-01-02T03:59:52.955Z,1012.58
2017-01-02T04:00:33.607Z,1012.6
2017-01-02T04:01:14.153Z,1012.58
2017-01-02T04:01:54.807Z,1012.55
2017-01-02T04:02:35.469Z,1012.56
2017-01-02T04:03:16.119Z,1012.58
2017-01-02T04:03:56.764Z,1012.62
2017-01-02T04:04:37.417Z,1012.62
2017-01-02T04:05:18.077Z,1012.67
2017-01-02T04:05:58.723Z,1012.68
2017-01-02T04:06:39.404Z,1012.64
2017-01-02T04:07:20.032Z,1012.61
2017-01-02T04:08:00.682Z,1012.67
2017-01-02T04:08:41.336Z,1012.65
2017-01-02T04:09:21.906Z,1012.62
2017-01-02T04:10:02.539Z,1012.58
2017-01-02T04:10:43.194Z,1012.58
2017-01-02T04:11:23.762Z,1012.63
2017-01-02T04:12:04.401Z,1012.6
2017-01-02T04:12:45.049Z,1012.63
2017-01-02T04:13:25.618Z,1012.68
2017-01-02T04:14:07.320Z,1012.66
2017-01-02T04:14:47.935Z,1012.7
2017-01-02T04:15:28.504Z,1012.74
2017-01-02T04:16:09.135Z,1012.75
2017-01-02T04:16:49.784Z,1012.8
2017-01-02T04:17:30.356Z,1012.78
2017-01-02T04:18:10.977Z,1012.77
2017-01-02T04:18:51.643Z,1012.78
2017-01-02T04:19:32.299Z,1012.79
2017-01-02T04:20:12.951Z,1012.79
2017-01-02T04:20:53.609Z,1012.81
2017-01-02T04:21:34.253Z,1012.78
2017-01-02T04:22:15.300Z,1012.78
2017-01-02T04:22:55.975Z,1012.77
2017-01-02T04:23:36.625Z,1012.77
2017-01-02T04:24:17.209Z,1012.75
2017-01-02T04:24:57.829Z,1012.77
2017-01-02T04:25:38.894Z,1012.73
2017-01-02T04:26:19.453Z,1012.77
2017-01-02T04:27:00.090Z,1012.78
2017-01-02T04:27:40.749Z,1012.73
2017-01-02T04:28:21.332Z,1012.76
2017-01-02T04:29:01.953Z,1012.72
2017-01-02T04:29:42.598Z,1012.75
2017-01-02T04:30:23.267Z,1012.78
2017-01-02T04:31:03.910Z,1012.77
2017-01-02T04:31:44.558Z,1012.75
2017-01-02T04:32:25.218Z,1012.79
2017-01-02T04:33:05.862Z,1012.76
2017-01-02T04:33:46.518Z,1012.8
2017-01-02T04:34:27.169Z,1012.79
2017-01-02T04:35:07.727Z,1012.75
2017-01-02T04:35:48.331Z,1012.8
2017-01-02T04:36:28.923Z,1012.78
2017-01-02T04:37:09.577Z,1012.76
2017-01-02T04:37:50.134Z,1012.74
2017-01-02T04:38:30.743Z,1012.75
2017-01-02T04:39:11.409Z,1012.73
2017-01-02T04:39:52.060Z,1012.75
2017-01-02T04:40:33.734Z,1012.69
2017-01-02T04:41:14.390Z,1012.7
2017-01-02T04:41:55.963Z,1012.65
2017-01-02T04:42:36.613Z,1012.67
2017-01-02T04:43:17.267Z,1012.62
2017-01-02T04:43:57.921Z,1012.64
2017-01-02T04:44:38.583Z,1012.6
2017-01-02T04:45:19.739Z,1012.6
2017-01-02T04:46:00.391Z,1012.6
2017-01-02T04:46:41.043Z,1012.64
2017-01-02T04:47:21.694Z,1012.62
2017-01-02T04:48:02.354Z,1012.63
2017-01-02T04:48:43.008Z,1012.62
2017-01-02T04:49:23.656Z,1012.63
2017-01-02T04:50:04.308Z,1012.59
2017-01-02T04:50:44.964Z,1012.58
2017-01-02T04:51:25.616Z,1012.63
2017-01-02T04:52:06.268Z,1012.63
2017-01-02T04:52:46.992Z,1012.62
2017-01-02T04:53:27.576Z,1012.67
2017-01-02T04:54:08.221Z,1012.66
2017-01-02T04:54:48.879Z,1012.67
2017-01-02T04:55:29.533Z,1012.69
2017-01-02T04:56:10.189Z,1012.7
2017-01-02T04:56:50.836Z,1012.72
2017-01-02T04:57:31.499Z,1012.73
2017-01-02T04:58:12.145Z,1012.75
2017-01-02T04:58:52.799Z,1012.74
2017-01-02T04:59:33.359Z,1012.72
2017-01-02T05:00:13.992Z,1012.73
2017-01-02T05:00:54.656Z,1012.69
2017-01-02T05:01:35.286Z,1012.69
2017-01-02T05:02:15.865Z,1012.71
2017-01-02T05:02:56.510Z,1012.68
2017-01-02T05:03:37.101Z,1012.65
2017-01-02T05:04:17.707Z,1012.67
2017-01-02T05:04:59.541Z,1012.7
2017-01-02T05:05:41.266Z,1012.72
2017-01-02T05:06:21.926Z,1012.73
2017-01-02T05:07:02.578Z,1012.75
2017-01-02T05:07:43.229Z,1012.72
2017-01-02T05:08:23.881Z,1012.75
2017-01-02T05:09:04.448Z,1012.75
2017-01-02T05:09:45.024Z,1012.77
2017-01-02T05:10:26.661Z,1012.79
2017-01-02T05:11:07.315Z,1012.8
2017-01-02T05:11:47.874Z,1012.82
2017-01-02T05:12:28.476Z,1012.84
2017-01-02T05:13:10.287Z,1012.86
2017-01-02T05:13:50.948Z,1012.83
2017-01-02T05:14:32.524Z,1012.82
2017-01-02T05:15:13.179Z,1012.81
2017-01-02T05:15:53.829Z,1012.81
2017-01-02T05:16:34.490Z,1012.8
2017-01-02T05:17:15.051Z,1012.81
2017-01-02T05:17:55.688Z,1012.8
2017-01-02T05:18:36.353Z,1012.82
2017-01-02T05:19:18.011Z,1012.81
2017-01-02T05:19:58.670Z,1012.81
2017-01-02T05:20:39.270Z,1012.8
2017-01-02T05:21:19.928Z,1012.8
2017-01-02T05:22:00.526Z,1012.78
2017-01-02T05:22:41.079Z,1012.78
2017-01-02T05:23:21.730Z,1012.74
2017-01-02T05:24:03.408Z,1012.76
2017-01-02T05:24:43.969Z,1012.76
2017-01-02T05:25:25.634Z,1012.76
2017-01-02T05:26:06.288Z,1012.77
2017-01-02T05:26:46.911Z,1012.81
2017-01-02T05:27:28.515Z,1012.83
2017-01-02T05:28:09.167Z,1012.82
2017-01-02T05:28:49.748Z,1012.82
2017-01-02T05:29:30.370Z,1012.84
2017-01-02T05:30:11.023Z,1012.82
2017-01-02T05:30:51.588Z,1012.77
2017-01-02T05:31:33.247Z,1012.81
2017-01-02T05:32:13.902Z,1012.78
2017-01-02T05:32:54.473Z,1012.77
2017-01-02T05:33:35.110Z,1012.78
2017-01-02T05:34:15.760Z,1012.76
2017-01-02T05:34:56.419Z,1012.77
2017-01-02T05:35:37.066Z,1012.73
2017-01-02T05:36:17.721Z,1012.75
2017-01-02T05:36:58.370Z,1012.77
2017-01-02T05:37:39.021Z,1012.83
2017-01-02T05:38:19.676Z,1012.82
2017-01-02T05:39:00.331Z,1012.84
2017-01-02T05:39:40.982Z,1012.83
2017-01-02T05:40:21.633Z,1012.85
2017-01-02T05:41:02.287Z,1012.91
2017-01-02T05:41:42.938Z,1012.88
2017-01-02T05:42:23.595Z,1012.89
2017-01-02T05:43:04.244Z,1012.9
2017-01-02T05:43:44.899Z,1012.89
2017-01-02T05:44:25.471Z,1012.93
2017-01-02T05:45:06.611Z,1012.92
2017-01-02T05:45:47.265Z,1012.89
2017-01-02T05:46:27.837Z,1012.88
2017-01-02T05:47:08.467Z,1012.91
2017-01-02T05:47:49.121Z,1012.85
2017-01-02T05:48:29.696Z,1012.92
2017-01-02T05:49:11.347Z,1012.99
2017-01-02T05:49:52.004Z,1012.99
2017-01-02T05:50:32.582Z,1012.99
2017-01-02T05:51:13.156Z,1012.94
2017-01-02T05:51:53.857Z,1012.95
2017-01-02T05:52:34.512Z,1012.89
2017-01-02T05:53:15.074Z,1012.92
2017-01-02T05:53:55.794Z,1012.89
2017-01-02T05:54:36.332Z,1012.93
2017-01-02T05:55:16.995Z,1012.9
2017-01-02T05:55:57.627Z,1012.92
2017-01-02T05:56:38.276Z,1012.92
2017-01-02T05:57:19.032Z,1012.85
2017-01-02T05:57:59.690Z,1012.92
2017-01-02T05:58:40.357Z,1012.86
2017-01-02T05:59:22.937Z,1012.89
2017-01-02T06:00:03.609Z,1012.88
2017-01-02T06:00:44.209Z,1012.88
2017-01-02T06:01:24.792Z,1012.89
2017-01-02T06:02:05.449Z,1012.89
2017-01-02T06:02:46.107Z,1012.9
2017-01-02T06:03:26.735Z,1012.98
2017-01-02T06:04:07.409Z,1012.93
2017-01-02T06:04:49.081Z,1012.92
2017-01-02T06:05:29.736Z,1012.92
2017-01-02T06:06:10.705Z,1012.91
2017-01-02T06:06:52.373Z,1012.92
2017-01-02T06:07:33.446Z,1012.91
2017-01-02T06:08:14.097Z,1012.91
2017-01-02T06:08:54.746Z,1012.91
2017-01-02T06:09:36.659Z,1012.9
2017-01-02T06:10:17.351Z,1012.92
2017-01-02T06:10:58.387Z,1012.9
2017-01-02T06:11:38.951Z,1012.93
2017-01-02T06:12:20.566Z,1012.91
2017-01-02T06:13:01.171Z,1012.91
2017-01-02T06:13:41.824Z,1012.94
2017-01-02T06:14:22.395Z,1012.94
2017-01-02T06:15:03.019Z,1012.95
2017-01-02T06:15:43.671Z,1012.95
2017-01-02T06:16:24.248Z,1012.99
2017-01-02T06:17:05.279Z,1012.96
2017-01-02T06:17:45.932Z,1013.01
2017-01-02T06:18:26.488Z,1013
2017-01-02T06:19:07.136Z,1013.04
2017-01-02T06:19:47.721Z,1013.01
2017-01-02T06:20:28.393Z,1013
2017-01-02T06:21:09.008Z,1012.99
2017-01-02T06:21:49.576Z,1013
2017-01-02T06:22:30.194Z,1013.01
2017-01-02T06:23:10.849Z,1013.02
2017-01-02T06:23:51.432Z,1013.07
2017-01-02T06:24:32.050Z,1013.05
2017-01-02T06:25:12.708Z,1013.03
2017-01-02T06:25:53.280Z,1013.04
2017-01-02T06:26:34.891Z,1013.07
2017-01-02T06:27:15.486Z,1013.01
2017-01-02T06:27:56.136Z,1013.1
2017-01-02T06:28:36.684Z,1013.01
2017-01-02T06:29:17.286Z,1012.98
2017-01-02T06:29:57.895Z,1012.96
2017-01-02T06:30:38.548Z,1012.93
2017-01-02T06:31:19.196Z,1012.94
2017-01-02T06:31:59.853Z,1012.91
2017-01-02T06:32:40.504Z,1012.91
2017-01-02T06:33:21.165Z,1012.92
2017-01-02T06:34:01.809Z,1012.91
2017-01-02T06:34:42.389Z,1012.92
2017-01-02T06:35:23.093Z,1012.88
2017-01-02T06:36:03.770Z,1012.95
2017-01-02T06:36:44.421Z,1012.94
2017-01-02T06:37:25.011Z,1012.96
2017-01-02T06:38:05.685Z,1012.97
2017-01-02T06:38:46.277Z,1012.96
2017-01-02T06:39:26.924Z,1012.9
2017-01-02T06:40:07.585Z,1012.94
2017-01-02T06:40:48.231Z,1012.93
2017-01-02T06:41:28.887Z,1012.92
2017-01-02T06:42:09.540Z,1012.92
2017-01-02T06:42:50.193Z,1012.89
2017-01-02T06:43:30.840Z,1012.94
2017-01-02T06:44:11.504Z,1012.87
2017-01-02T06:44:52.149Z,1012.89
2017-01-02T06:45:32.702Z,1012.9
2017-01-02T06:46:13.468Z,1012.94
2017-01-02T06:46:54.104Z,1012.89
2017-01-02T06:47:34.764Z,1012.9
2017-01-02T06:48:15.411Z,1012.93
2017-01-02T06:48:56.077Z,1012.92
2017-01-02T06:49:36.718Z,1012.91
2017-01-02T06:50:17.375Z,1012.93
2017-01-02T06:50:58.047Z,1012.97
2017-01-02T06:51:40.526Z,1012.93
2017-01-02T06:52:21.171Z,1012.95
2017-01-02T06:53:01.831Z,1012.97
2017-01-02T06:53:42.482Z,1012.95
2017-01-02T06:54:23.039Z,1012.96
2017-01-02T06:55:03.679Z,1012.93
2017-01-02T06:55:46.242Z,1012.98
2017-01-02T06:56:26.757Z,1012.97
2017-01-02T06:57:07.393Z,1012.98
2017-01-02T06:57:48.041Z,1012.98
2017-01-02T06:58:28.613Z,1013
2017-01-02T06:59:09.232Z,1013.01
2017-01-02T06:59:49.897Z,1013.05
2017-01-02T07:00:30.555Z,1013.02
2017-01-02T07:01:11.207Z,1013.02
2017-01-02T07:01:51.863Z,1012.99
2017-01-02T07:02:32.419Z,1013.01
2017-01-02T07:03:13.063Z,1013.06
2017-01-02T07:03:53.715Z,1013.02
2017-01-02T07:04:34.371Z,1013.05
2017-01-02T07:05:15.018Z,1013.06
2017-01-02T07:05:55.675Z,1013.03
2017-01-02T07:06:36.326Z,1013.06
2017-01-02T07:07:16.972Z,1013.11
2017-01-02T07:07:57.630Z,1013.08
2017-01-02T07:08:38.287Z,1013.13
2017-01-02T07:09:19.368Z,1013.17
2017-01-02T07:09:59.925Z,1013.19
2017-01-02T07:10:40.594Z,1013.17
2017-01-02T07:11:21.188Z,1013.19
2017-01-02T07:12:01.858Z,1013.19
2017-01-02T07:12:42.408Z,1013.19
2017-01-02T07:13:23.009Z,1013.2
2017-01-02T07:14:04.015Z,1013.24
2017-01-02T07:14:44.674Z,1013.25
2017-01-02T07:15:25.319Z,1013.3
2017-01-02T07:16:05.896Z,1013.27
2017-01-02T07:16:46.525Z,1013.3
2017-01-02T07:17:27.183Z,1013.31
2017-01-02T07:18:07.836Z,1013.34
2017-01-02T07:18:48.489Z,1013.36
2017-01-02T07:19:29.057Z,1013.45
2017-01-02T07:20:09.630Z,1013.46
2017-01-02T07:20:50.228Z,1013.51
2017-01-02T07:21:30.895Z,1013.47
2017-01-02T07:22:11.467Z,1013.46
2017-01-02T07:22:52.043Z,1013.51
2017-01-02T07:23:32.635Z,1013.5
2017-01-02T07:24:13.694Z,1013.5
2017-01-02T07:24:54.660Z,1013.51
2017-01-02T07:25:35.315Z,1013.46
2017-01-02T07:26:15.971Z,1013.47
2017-01-02T07:26:56.527Z,1013.5
2017-01-02T07:27:37.162Z,1013.46
2017-01-02T07:28:17.832Z,1013.5
2017-01-02T07:28:58.403Z,1013.52
2017-01-02T07:29:39.034Z,1013.5
2017-01-02T07:30:19.690Z,1013.5
2017-01-02T07:31:00.259Z,1013.52
2017-01-02T07:31:40.943Z,1013.51
2017-01-02T07:32:21.649Z,1013.55
2017-01-02T07:33:02.207Z,1013.57
2017-01-02T07:33:42.850Z,1013.59
2017-01-02T07:34:23.503Z,1013.58
2017-01-02T07:35:04.169Z,1013.57
2017-01-02T07:35:44.817Z,1013.59
2017-01-02T07:36:25.486Z,1013.6
2017-01-02T07:37:06.107Z,1013.57
2017-01-02T07:37:46.810Z,1013.6
2017-01-02T07:38:27.419Z,1013.63
2017-01-02T07:39:08.082Z,1013.69
2017-01-02T07:39:48.717Z,1013.7
2017-01-02T07:40:29.369Z,1013.71
2017-01-02T07:41:10.054Z,1013.72
2017-01-02T07:41:50.685Z,1013.72
2017-01-02T07:42:31.345Z,1013.72
2017-01-02T07:43:11.983Z,1013.75
2017-01-02T07:43:52.661Z,1013.8
2017-01-02T07:44:33.246Z,1013.74
2017-01-02T07:45:13.900Z,1013.73
2017-01-02T07:45:54.965Z,1013.78
2017-01-02T07:46:35.607Z,1013.79
2017-01-02T07:47:16.266Z,1013.84
2017-01-02T07:47:56.920Z,1013.83
2017-01-02T07:48:37.563Z,1013.84
2017-01-02T07:49:18.227Z,1013.88
2017-01-02T07:49:58.869Z,1013.87
2017-01-02T07:50:39.532Z,1013.88
2017-01-02T07:51:20.185Z,1013.88
2017-01-02T07:52:00.830Z,1013.89
2017-01-02T07:52:41.524Z,1013.87
2017-01-02T07:53:22.144Z,1013.88
2017-01-02T07:54:02.790Z,1013.88
2017-01-02T07:54:44.587Z,1013.92
2017-01-02T07:55:25.141Z,1013.89
2017-01-02T07:56:05.855Z,1013.86
2017-01-02T07:56:46.537Z,1013.89
2017-01-02T07:57:27.097Z,1013.9
2017-01-02T07:58:08.653Z,1013.94
2017-01-02T07:58:51.374Z,1013.92
2017-01-02T07:59:31.938Z,1013.98
2017-01-02T08:00:12.621Z,1014
2017-01-02T10:16:49.274Z,1014.41
2017-01-02T10:17:31.262Z,1014.36
2017-01-02T10:18:11.911Z,1014.36
2017-01-02T10:18:52.563Z,1014.34
2017-01-02T10:19:33.219Z,1014.39
2017-01-02T10:20:13.782Z,1014.36
2017-01-02T10:20:54.420Z,1014.35
2017-01-02T10:21:35.072Z,1014.34
2017-01-02T10:22:15.680Z,1014.34
2017-01-02T10:22:56.274Z,1014.34
2017-01-02T10:23:36.929Z,1014.33
2017-01-02T10:24:17.549Z,1014.32
2017-01-02T10:24:58.131Z,1014.3
2017-01-02T10:25:38.779Z,1014.28
2017-01-02T10:26:19.372Z,1014.3
2017-01-02T10:27:00.076Z,1014.29
2017-01-02T10:27:40.643Z,1014.29
2017-01-02T10:28:21.295Z,1014.33
2017-01-02T10:29:01.864Z,1014.3
2017-01-02T10:29:42.447Z,1014.33